sensor_id;sensor_type;location;lat;lon;timestamp;P1;durP1;ratioP1;P2;durP2;ratioP2
21424;SDS011;10873;51.132;16.848;2023-06-10T00:00:50;13.00;;;9.68;;
21424;SDS011;10873;51.132;16.848;2023-06-10T00:03:38;12.48;;;9.50;;
21424;SDS011;10873;51.132;16.848;2023-06-10T00:06:04;10.25;;;8.95;;
21424;SDS011;10873;51.132;16.848;2023-06-10T00:08:31;11.43;;;9.35;;
21424;SDS011;10873;51.132;16.848;2023-06-10T00:10:58;11.65;;;9.35;;
21424;SDS011;10873;51.132;16.848;2023-06-10T00:13:24;9.85;;;8.70;;
21424;SDS011;10873;51.132;16.848;2023-06-10T00:15:50;11.10;;;8.23;;
21424;SDS011;10873;51.132;16.848;2023-06-10T00:18:16;10.10;;;8.57;;
21424;SDS011;10873;51.132;16.848;2023-06-10T00:20:44;12.05;;;8.45;;
21424;SDS011;10873;51.132;16.848;2023-06-10T00:23:10;10.07;;;8.50;;
21424;SDS011;10873;51.132;16.848;2023-06-10T00:25:36;10.05;;;7.82;;
21424;SDS011;10873;51.132;16.848;2023-06-10T00:28:02;12.82;;;8.35;;
21424;SDS011;10873;51.132;16.848;2023-06-10T00:30:28;10.18;;;7.82;;
21424;SDS011;10873;51.132;16.848;2023-06-10T00:32:55;9.68;;;7.72;;
21424;SDS011;10873;51.132;16.848;2023-06-10T00:35:21;11.25;;;8.15;;
21424;SDS011;10873;51.132;16.848;2023-06-10T00:37:48;10.43;;;7.25;;
21424;SDS011;10873;51.132;16.848;2023-06-10T00:40:14;8.45;;;7.05;;
21424;SDS011;10873;51.132;16.848;2023-06-10T00:42:40;9.52;;;7.82;;
21424;SDS011;10873;51.132;16.848;2023-06-10T00:45:07;8.30;;;6.85;;
21424;SDS011;10873;51.132;16.848;2023-06-10T00:47:33;9.10;;;7.57;;
21424;SDS011;10873;51.132;16.848;2023-06-10T00:50:00;9.95;;;7.30;;
21424;SDS011;10873;51.132;16.848;2023-06-10T00:52:28;9.40;;;7.15;;
21424;SDS011;10873;51.132;16.848;2023-06-10T00:54:57;10.75;;;7.30;;
21424;SDS011;10873;51.132;16.848;2023-06-10T00:57:24;9.13;;;7.22;;
21424;SDS011;10873;51.132;16.848;2023-06-10T00:59:51;10.48;;;6.97;;
21424;SDS011;10873;51.132;16.848;2023-06-10T01:02:18;9.02;;;6.50;;
21424;SDS011;10873;51.132;16.848;2023-06-10T01:04:44;7.40;;;6.65;;
21424;SDS011;10873;51.132;16.848;2023-06-10T01:07:13;9.55;;;7.05;;
21424;SDS011;10873;51.132;16.848;2023-06-10T01:09:48;8.07;;;6.25;;
21424;SDS011;10873;51.132;16.848;2023-06-10T01:12:23;7.38;;;6.57;;
21424;SDS011;10873;51.132;16.848;2023-06-10T01:14:56;7.70;;;6.30;;
21424;SDS011;10873;51.132;16.848;2023-06-10T01:17:24;8.20;;;6.68;;
21424;SDS011;10873;51.132;16.848;2023-06-10T01:19:56;7.70;;;6.30;;
21424;SDS011;10873;51.132;16.848;2023-06-10T01:22:24;8.43;;;6.47;;
21424;SDS011;10873;51.132;16.848;2023-06-10T01:24:53;7.75;;;6.43;;
21424;SDS011;10873;51.132;16.848;2023-06-10T01:27:24;8.55;;;6.57;;
21424;SDS011;10873;51.132;16.848;2023-06-10T01:29:54;6.80;;;5.80;;
21424;SDS011;10873;51.132;16.848;2023-06-10T01:32:26;8.35;;;6.50;;
21424;SDS011;10873;51.132;16.848;2023-06-10T01:34:57;7.50;;;6.28;;
21424;SDS011;10873;51.132;16.848;2023-06-10T01:37:26;8.27;;;6.28;;
21424;SDS011;10873;51.132;16.848;2023-06-10T01:39:53;7.75;;;6.07;;
21424;SDS011;10873;51.132;16.848;2023-06-10T01:42:22;8.43;;;6.13;;
21424;SDS011;10873;51.132;16.848;2023-06-10T01:44:49;6.88;;;5.97;;
21424;SDS011;10873;51.132;16.848;2023-06-10T01:47:16;6.78;;;6.07;;
21424;SDS011;10873;51.132;16.848;2023-06-10T01:49:43;6.80;;;6.10;;
21424;SDS011;10873;51.132;16.848;2023-06-10T01:52:09;8.57;;;6.30;;
21424;SDS011;10873;51.132;16.848;2023-06-10T01:54:36;7.18;;;5.85;;
21424;SDS011;10873;51.132;16.848;2023-06-10T01:57:02;6.35;;;5.07;;
21424;SDS011;10873;51.132;16.848;2023-06-10T01:59:29;7.05;;;6.00;;
21424;SDS011;10873;51.132;16.848;2023-06-10T02:01:55;6.25;;;5.60;;
21424;SDS011;10873;51.132;16.848;2023-06-10T02:04:21;6.47;;;5.70;;
21424;SDS011;10873;51.132;16.848;2023-06-10T02:06:47;7.28;;;5.80;;
21424;SDS011;10873;51.132;16.848;2023-06-10T02:09:13;7.97;;;5.82;;
21424;SDS011;10873;51.132;16.848;2023-06-10T02:11:41;7.97;;;5.70;;
21424;SDS011;10873;51.132;16.848;2023-06-10T02:14:07;6.82;;;5.50;;
21424;SDS011;10873;51.132;16.848;2023-06-10T02:16:33;5.68;;;5.03;;
21424;SDS011;10873;51.132;16.848;2023-06-10T02:18:59;5.93;;;5.20;;
21424;SDS011;10873;51.132;16.848;2023-06-10T02:21:26;6.72;;;4.90;;
21424;SDS011;10873;51.132;16.848;2023-06-10T02:23:52;7.55;;;5.45;;
21424;SDS011;10873;51.132;16.848;2023-06-10T02:26:18;7.30;;;5.65;;
21424;SDS011;10873;51.132;16.848;2023-06-10T02:28:45;6.80;;;5.18;;
21424;SDS011;10873;51.132;16.848;2023-06-10T02:31:12;8.38;;;5.30;;
21424;SDS011;10873;51.132;16.848;2023-06-10T02:33:39;6.85;;;5.05;;
21424;SDS011;10873;51.132;16.848;2023-06-10T02:36:05;6.93;;;5.63;;
21424;SDS011;10873;51.132;16.848;2023-06-10T02:38:31;5.70;;;5.10;;
21424;SDS011;10873;51.132;16.848;2023-06-10T02:40:58;6.28;;;5.20;;
21424;SDS011;10873;51.132;16.848;2023-06-10T02:43:23;8.13;;;5.43;;
21424;SDS011;10873;51.132;16.848;2023-06-10T02:45:51;6.05;;;5.05;;
21424;SDS011;10873;51.132;16.848;2023-06-10T02:48:17;7.40;;;5.55;;
21424;SDS011;10873;51.132;16.848;2023-06-10T02:50:43;6.55;;;5.40;;
21424;SDS011;10873;51.132;16.848;2023-06-10T02:53:09;6.03;;;4.88;;
21424;SDS011;10873;51.132;16.848;2023-06-10T02:55:35;8.13;;;5.35;;
21424;SDS011;10873;51.132;16.848;2023-06-10T02:58:01;8.40;;;5.15;;
21424;SDS011;10873;51.132;16.848;2023-06-10T03:00:28;8.95;;;5.13;;
21424;SDS011;10873;51.132;16.848;2023-06-10T03:02:55;14.50;;;5.65;;
21424;SDS011;10873;51.132;16.848;2023-06-10T03:05:23;9.07;;;6.05;;
21424;SDS011;10873;51.132;16.848;2023-06-10T03:07:49;8.75;;;6.10;;
21424;SDS011;10873;51.132;16.848;2023-06-10T03:10:15;8.00;;;6.15;;
21424;SDS011;10873;51.132;16.848;2023-06-10T03:12:41;14.55;;;7.40;;
21424;SDS011;10873;51.132;16.848;2023-06-10T03:15:07;12.38;;;6.32;;
21424;SDS011;10873;51.132;16.848;2023-06-10T03:17:34;9.18;;;5.85;;
21424;SDS011;10873;51.132;16.848;2023-06-10T03:20:02;7.35;;;5.68;;
21424;SDS011;10873;51.132;16.848;2023-06-10T03:22:30;8.98;;;5.90;;
21424;SDS011;10873;51.132;16.848;2023-06-10T03:24:57;11.65;;;5.25;;
21424;SDS011;10873;51.132;16.848;2023-06-10T03:27:22;9.70;;;5.65;;
21424;SDS011;10873;51.132;16.848;2023-06-10T03:29:49;10.00;;;5.13;;
21424;SDS011;10873;51.132;16.848;2023-06-10T03:32:15;8.85;;;5.20;;
21424;SDS011;10873;51.132;16.848;2023-06-10T03:34:41;6.82;;;5.25;;
21424;SDS011;10873;51.132;16.848;2023-06-10T03:37:08;8.02;;;5.65;;
21424;SDS011;10873;51.132;16.848;2023-06-10T03:39:35;12.23;;;5.22;;
21424;SDS011;10873;51.132;16.848;2023-06-10T03:42:00;8.50;;;5.43;;
21424;SDS011;10873;51.132;16.848;2023-06-10T03:44:27;9.27;;;5.18;;
21424;SDS011;10873;51.132;16.848;2023-06-10T03:46:53;6.22;;;4.80;;
21424;SDS011;10873;51.132;16.848;2023-06-10T03:49:19;8.10;;;4.78;;
21424;SDS011;10873;51.132;16.848;2023-06-10T03:51:45;5.68;;;5.07;;
21424;SDS011;10873;51.132;16.848;2023-06-10T03:54:13;8.02;;;4.95;;
21424;SDS011;10873;51.132;16.848;2023-06-10T03:56:39;6.53;;;4.82;;
21424;SDS011;10873;51.132;16.848;2023-06-10T03:59:05;8.55;;;4.82;;
21424;SDS011;10873;51.132;16.848;2023-06-10T04:01:31;6.70;;;4.90;;
21424;SDS011;10873;51.132;16.848;2023-06-10T04:03:58;5.75;;;4.88;;
21424;SDS011;10873;51.132;16.848;2023-06-10T04:06:26;7.35;;;5.13;;
21424;SDS011;10873;51.132;16.848;2023-06-10T04:08:54;6.65;;;4.70;;
21424;SDS011;10873;51.132;16.848;2023-06-10T04:11:23;10.13;;;5.03;;
21424;SDS011;10873;51.132;16.848;2023-06-10T04:13:49;6.40;;;4.90;;
21424;SDS011;10873;51.132;16.848;2023-06-10T04:16:15;7.82;;;4.85;;
21424;SDS011;10873;51.132;16.848;2023-06-10T04:18:42;7.13;;;4.70;;
21424;SDS011;10873;51.132;16.848;2023-06-10T04:21:07;6.00;;;5.10;;
21424;SDS011;10873;51.132;16.848;2023-06-10T04:23:34;4.85;;;4.18;;
21424;SDS011;10873;51.132;16.848;2023-06-10T04:26:00;7.07;;;4.72;;
21424;SDS011;10873;51.132;16.848;2023-06-10T04:28:27;5.80;;;4.93;;
21424;SDS011;10873;51.132;16.848;2023-06-10T04:30:53;5.95;;;4.85;;
21424;SDS011;10873;51.132;16.848;2023-06-10T04:33:19;6.78;;;4.60;;
21424;SDS011;10873;51.132;16.848;2023-06-10T04:35:45;5.68;;;4.80;;
21424;SDS011;10873;51.132;16.848;2023-06-10T04:38:13;5.90;;;4.90;;
21424;SDS011;10873;51.132;16.848;2023-06-10T04:40:39;8.30;;;4.55;;
21424;SDS011;10873;51.132;16.848;2023-06-10T04:43:05;5.20;;;4.72;;
21424;SDS011;10873;51.132;16.848;2023-06-10T04:45:33;9.35;;;4.93;;
21424;SDS011;10873;51.132;16.848;2023-06-10T04:47:59;8.32;;;4.72;;
21424;SDS011;10873;51.132;16.848;2023-06-10T04:50:25;5.30;;;4.68;;
21424;SDS011;10873;51.132;16.848;2023-06-10T04:52:52;5.07;;;4.57;;
21424;SDS011;10873;51.132;16.848;2023-06-10T04:55:18;6.72;;;4.93;;
21424;SDS011;10873;51.132;16.848;2023-06-10T04:57:44;7.82;;;4.53;;
21424;SDS011;10873;51.132;16.848;2023-06-10T05:00:10;5.40;;;4.78;;
21424;SDS011;10873;51.132;16.848;2023-06-10T05:02:38;5.68;;;4.32;;
21424;SDS011;10873;51.132;16.848;2023-06-10T05:05:04;5.10;;;4.60;;
21424;SDS011;10873;51.132;16.848;2023-06-10T05:07:31;5.90;;;4.72;;
21424;SDS011;10873;51.132;16.848;2023-06-10T05:09:57;6.03;;;4.78;;
21424;SDS011;10873;51.132;16.848;2023-06-10T05:12:23;8.27;;;4.13;;
21424;SDS011;10873;51.132;16.848;2023-06-10T05:14:49;4.97;;;4.47;;
21424;SDS011;10873;51.132;16.848;2023-06-10T05:17:16;5.57;;;4.93;;
21424;SDS011;10873;51.132;16.848;2023-06-10T05:19:43;5.70;;;4.45;;
21424;SDS011;10873;51.132;16.848;2023-06-10T05:22:09;5.10;;;4.60;;
21424;SDS011;10873;51.132;16.848;2023-06-10T05:24:35;5.45;;;4.80;;
21424;SDS011;10873;51.132;16.848;2023-06-10T05:27:01;4.93;;;4.43;;
21424;SDS011;10873;51.132;16.848;2023-06-10T05:29:28;6.05;;;4.78;;
21424;SDS011;10873;51.132;16.848;2023-06-10T05:31:54;7.22;;;4.85;;
21424;SDS011;10873;51.132;16.848;2023-06-10T05:34:22;5.90;;;4.97;;
21424;SDS011;10873;51.132;16.848;2023-06-10T05:36:49;4.80;;;4.30;;
21424;SDS011;10873;51.132;16.848;2023-06-10T05:39:15;5.07;;;4.53;;
21424;SDS011;10873;51.132;16.848;2023-06-10T05:41:41;5.43;;;4.80;;
21424;SDS011;10873;51.132;16.848;2023-06-10T05:44:07;4.90;;;4.35;;
21424;SDS011;10873;51.132;16.848;2023-06-10T05:46:33;5.60;;;5.00;;
21424;SDS011;10873;51.132;16.848;2023-06-10T05:48:59;6.55;;;4.60;;
21424;SDS011;10873;51.132;16.848;2023-06-10T05:51:25;5.05;;;4.32;;
21424;SDS011;10873;51.132;16.848;2023-06-10T05:53:54;6.97;;;4.93;;
21424;SDS011;10873;51.132;16.848;2023-06-10T05:56:20;7.43;;;4.78;;
21424;SDS011;10873;51.132;16.848;2023-06-10T05:58:49;4.80;;;4.40;;
21424;SDS011;10873;51.132;16.848;2023-06-10T06:01:15;4.90;;;4.50;;
21424;SDS011;10873;51.132;16.848;2023-06-10T06:03:41;6.05;;;4.55;;
21424;SDS011;10873;51.132;16.848;2023-06-10T06:06:07;5.45;;;4.50;;
21424;SDS011;10873;51.132;16.848;2023-06-10T06:08:33;6.18;;;4.80;;
21424;SDS011;10873;51.132;16.848;2023-06-10T06:11:00;4.50;;;4.10;;
21424;SDS011;10873;51.132;16.848;2023-06-10T06:13:26;6.18;;;4.13;;
21424;SDS011;10873;51.132;16.848;2023-06-10T06:15:52;5.10;;;4.50;;
21424;SDS011;10873;51.132;16.848;2023-06-10T06:18:18;6.82;;;4.45;;
21424;SDS011;10873;51.132;16.848;2023-06-10T06:20:44;5.40;;;4.82;;
21424;SDS011;10873;51.132;16.848;2023-06-10T06:23:10;5.68;;;5.00;;
21424;SDS011;10873;51.132;16.848;2023-06-10T06:25:36;4.97;;;4.57;;
21424;SDS011;10873;51.132;16.848;2023-06-10T06:28:05;6.18;;;4.55;;
21424;SDS011;10873;51.132;16.848;2023-06-10T06:30:31;7.90;;;5.05;;
21424;SDS011;10873;51.132;16.848;2023-06-10T06:32:57;4.88;;;4.45;;
21424;SDS011;10873;51.132;16.848;2023-06-10T06:35:23;5.05;;;4.53;;
21424;SDS011;10873;51.132;16.848;2023-06-10T06:37:49;5.20;;;4.38;;
21424;SDS011;10873;51.132;16.848;2023-06-10T06:40:15;5.10;;;4.47;;
21424;SDS011;10873;51.132;16.848;2023-06-10T06:42:41;5.30;;;4.43;;
21424;SDS011;10873;51.132;16.848;2023-06-10T06:45:09;4.93;;;4.43;;
21424;SDS011;10873;51.132;16.848;2023-06-10T06:47:35;5.32;;;4.75;;
21424;SDS011;10873;51.132;16.848;2023-06-10T06:50:01;5.40;;;4.68;;
21424;SDS011;10873;51.132;16.848;2023-06-10T06:52:28;4.93;;;4.47;;
21424;SDS011;10873;51.132;16.848;2023-06-10T06:54:54;6.63;;;4.70;;
21424;SDS011;10873;51.132;16.848;2023-06-10T06:57:20;5.13;;;4.65;;
21424;SDS011;10873;51.132;16.848;2023-06-10T06:59:47;5.90;;;5.00;;
21424;SDS011;10873;51.132;16.848;2023-06-10T07:02:14;6.70;;;5.13;;
21424;SDS011;10873;51.132;16.848;2023-06-10T07:04:40;4.93;;;4.50;;
21424;SDS011;10873;51.132;16.848;2023-06-10T07:07:13;6.03;;;4.50;;
21424;SDS011;10873;51.132;16.848;2023-06-10T07:09:39;5.35;;;4.72;;
21424;SDS011;10873;51.132;16.848;2023-06-10T07:12:28;5.53;;;5.03;;
21424;SDS011;10873;51.132;16.848;2023-06-10T07:14:59;5.70;;;4.50;;
21424;SDS011;10873;51.132;16.848;2023-06-10T07:17:31;5.07;;;4.57;;
21424;SDS011;10873;51.132;16.848;2023-06-10T07:20:30;6.53;;;4.72;;
21424;SDS011;10873;51.132;16.848;2023-06-10T07:22:56;6.30;;;4.72;;
21424;SDS011;10873;51.132;16.848;2023-06-10T07:25:25;5.88;;;4.57;;
21424;SDS011;10873;51.132;16.848;2023-06-10T07:27:51;5.50;;;4.85;;
21424;SDS011;10873;51.132;16.848;2023-06-10T07:30:23;6.70;;;4.78;;
21424;SDS011;10873;51.132;16.848;2023-06-10T07:32:51;5.47;;;4.53;;
21424;SDS011;10873;51.132;16.848;2023-06-10T07:35:17;5.57;;;4.90;;
21424;SDS011;10873;51.132;16.848;2023-06-10T07:37:46;4.90;;;4.40;;
21424;SDS011;10873;51.132;16.848;2023-06-10T07:40:23;5.20;;;4.70;;
21424;SDS011;10873;51.132;16.848;2023-06-10T07:44:06;4.72;;;4.32;;
21424;SDS011;10873;51.132;16.848;2023-06-10T07:49:40;5.60;;;5.10;;
21424;SDS011;10873;51.132;16.848;2023-06-10T07:52:07;5.50;;;5.00;;
21424;SDS011;10873;51.132;16.848;2023-06-10T07:54:33;5.72;;;4.68;;
21424;SDS011;10873;51.132;16.848;2023-06-10T07:57:00;4.90;;;4.50;;
21424;SDS011;10873;51.132;16.848;2023-06-10T07:59:25;5.32;;;4.75;;
21424;SDS011;10873;51.132;16.848;2023-06-10T08:01:52;5.45;;;4.63;;
21424;SDS011;10873;51.132;16.848;2023-06-10T08:04:18;5.45;;;4.60;;
21424;SDS011;10873;51.132;16.848;2023-06-10T08:06:46;5.90;;;4.82;;
21424;SDS011;10873;51.132;16.848;2023-06-10T08:09:12;5.10;;;4.60;;
21424;SDS011;10873;51.132;16.848;2023-06-10T08:11:38;5.00;;;4.60;;
21424;SDS011;10873;51.132;16.848;2023-06-10T08:14:04;5.07;;;4.63;;
21424;SDS011;10873;51.132;16.848;2023-06-10T08:16:30;5.63;;;4.60;;
21424;SDS011;10873;51.132;16.848;2023-06-10T08:18:56;5.85;;;4.57;;
21424;SDS011;10873;51.132;16.848;2023-06-10T08:21:23;6.32;;;4.45;;
21424;SDS011;10873;51.132;16.848;2023-06-10T08:23:53;4.90;;;4.35;;
21424;SDS011;10873;51.132;16.848;2023-06-10T08:26:19;5.40;;;4.90;;
21424;SDS011;10873;51.132;16.848;2023-06-10T08:28:45;4.75;;;4.35;;
21424;SDS011;10873;51.132;16.848;2023-06-10T08:31:12;5.35;;;4.85;;
21424;SDS011;10873;51.132;16.848;2023-06-10T08:33:38;4.75;;;4.25;;
21424;SDS011;10873;51.132;16.848;2023-06-10T08:36:04;5.65;;;4.35;;
21424;SDS011;10873;51.132;16.848;2023-06-10T08:38:30;5.00;;;4.50;;
21424;SDS011;10873;51.132;16.848;2023-06-10T08:40:59;4.88;;;4.47;;
21424;SDS011;10873;51.132;16.848;2023-06-10T08:43:28;5.70;;;4.82;;
21424;SDS011;10873;51.132;16.848;2023-06-10T08:45:59;5.13;;;4.63;;
21424;SDS011;10873;51.132;16.848;2023-06-10T08:48:28;7.07;;;5.18;;
21424;SDS011;10873;51.132;16.848;2023-06-10T08:50:55;6.13;;;4.68;;
21424;SDS011;10873;51.132;16.848;2023-06-10T08:53:22;4.80;;;4.40;;
21424;SDS011;10873;51.132;16.848;2023-06-10T08:55:51;5.68;;;4.80;;
21424;SDS011;10873;51.132;16.848;2023-06-10T08:58:19;4.85;;;4.35;;
21424;SDS011;10873;51.132;16.848;2023-06-10T09:00:46;4.95;;;4.45;;
21424;SDS011;10873;51.132;16.848;2023-06-10T09:03:12;5.40;;;4.90;;
21424;SDS011;10873;51.132;16.848;2023-06-10T09:05:39;5.30;;;4.80;;
21424;SDS011;10873;51.132;16.848;2023-06-10T09:08:06;5.22;;;4.72;;
21424;SDS011;10873;51.132;16.848;2023-06-10T09:10:33;4.75;;;4.30;;
21424;SDS011;10873;51.132;16.848;2023-06-10T09:12:59;5.10;;;4.63;;
21424;SDS011;10873;51.132;16.848;2023-06-10T09:15:27;5.15;;;4.10;;
21424;SDS011;10873;51.132;16.848;2023-06-10T09:17:53;4.85;;;4.43;;
21424;SDS011;10873;51.132;16.848;2023-06-10T09:20:19;4.63;;;4.22;;
21424;SDS011;10873;51.132;16.848;2023-06-10T09:22:45;5.75;;;5.13;;
21424;SDS011;10873;51.132;16.848;2023-06-10T09:25:12;4.60;;;4.20;;
21424;SDS011;10873;51.132;16.848;2023-06-10T09:27:44;5.85;;;4.70;;
21424;SDS011;10873;51.132;16.848;2023-06-10T09:30:23;5.22;;;4.72;;
21424;SDS011;10873;51.132;16.848;2023-06-10T09:32:53;5.68;;;4.47;;
21424;SDS011;10873;51.132;16.848;2023-06-10T09:35:22;4.90;;;4.45;;
21424;SDS011;10873;51.132;16.848;2023-06-10T09:37:49;4.53;;;4.13;;
21424;SDS011;10873;51.132;16.848;2023-06-10T09:40:17;4.97;;;4.47;;
21424;SDS011;10873;51.132;16.848;2023-06-10T09:42:43;4.85;;;4.35;;
21424;SDS011;10873;51.132;16.848;2023-06-10T09:45:09;4.60;;;4.20;;
21424;SDS011;10873;51.132;16.848;2023-06-10T09:47:36;5.05;;;4.65;;
21424;SDS011;10873;51.132;16.848;2023-06-10T09:50:03;5.03;;;4.53;;
21424;SDS011;10873;51.132;16.848;2023-06-10T09:52:30;4.95;;;4.47;;
21424;SDS011;10873;51.132;16.848;2023-06-10T09:54:58;4.80;;;4.40;;
21424;SDS011;10873;51.132;16.848;2023-06-10T09:57:25;5.22;;;4.72;;
21424;SDS011;10873;51.132;16.848;2023-06-10T09:59:55;5.70;;;5.20;;
21424;SDS011;10873;51.132;16.848;2023-06-10T10:02:21;5.93;;;4.68;;
21424;SDS011;10873;51.132;16.848;2023-06-10T10:04:48;5.65;;;5.15;;
21424;SDS011;10873;51.132;16.848;2023-06-10T10:07:15;4.95;;;4.55;;
21424;SDS011;10873;51.132;16.848;2023-06-10T10:09:42;5.25;;;4.75;;
21424;SDS011;10873;51.132;16.848;2023-06-10T10:12:09;4.95;;;4.55;;
21424;SDS011;10873;51.132;16.848;2023-06-10T10:14:37;5.00;;;4.57;;
21424;SDS011;10873;51.132;16.848;2023-06-10T10:17:04;4.97;;;4.47;;
21424;SDS011;10873;51.132;16.848;2023-06-10T10:19:33;5.40;;;4.90;;
21424;SDS011;10873;51.132;16.848;2023-06-10T10:22:03;5.60;;;5.10;;
21424;SDS011;10873;51.132;16.848;2023-06-10T10:24:38;5.72;;;5.13;;
21424;SDS011;10873;51.132;16.848;2023-06-10T10:27:07;4.90;;;4.40;;
21424;SDS011;10873;51.132;16.848;2023-06-10T10:29:39;5.80;;;4.85;;
21424;SDS011;10873;51.132;16.848;2023-06-10T10:32:07;5.80;;;5.20;;
21424;SDS011;10873;51.132;16.848;2023-06-10T10:34:37;5.70;;;5.10;;
21424;SDS011;10873;51.132;16.848;2023-06-10T10:37:17;5.50;;;4.93;;
21424;SDS011;10873;51.132;16.848;2023-06-10T10:39:45;8.23;;;5.25;;
21424;SDS011;10873;51.132;16.848;2023-06-10T10:42:11;5.50;;;5.00;;
21424;SDS011;10873;51.132;16.848;2023-06-10T10:44:38;4.80;;;4.40;;
21424;SDS011;10873;51.132;16.848;2023-06-10T10:47:07;6.93;;;4.75;;
21424;SDS011;10873;51.132;16.848;2023-06-10T10:49:34;5.32;;;4.82;;
21424;SDS011;10873;51.132;16.848;2023-06-10T10:52:02;4.47;;;4.07;;
21424;SDS011;10873;51.132;16.848;2023-06-10T10:54:32;5.15;;;4.65;;
21424;SDS011;10873;51.132;16.848;2023-06-10T10:59:52;6.13;;;4.80;;
21424;SDS011;10873;51.132;16.848;2023-06-10T11:02:34;5.60;;;5.10;;
21424;SDS011;10873;51.132;16.848;2023-06-10T11:05:04;5.65;;;4.85;;
21424;SDS011;10873;51.132;16.848;2023-06-10T11:07:31;5.25;;;4.75;;
21424;SDS011;10873;51.132;16.848;2023-06-10T11:09:58;4.95;;;4.55;;
21424;SDS011;10873;51.132;16.848;2023-06-10T11:12:28;4.82;;;4.40;;
21424;SDS011;10873;51.132;16.848;2023-06-10T11:15:18;5.15;;;4.75;;
21424;SDS011;10873;51.132;16.848;2023-06-10T11:20:42;7.53;;;4.63;;
21424;SDS011;10873;51.132;16.848;2023-06-10T11:26:18;4.90;;;4.40;;
21424;SDS011;10873;51.132;16.848;2023-06-10T11:29:08;4.82;;;4.43;;
21424;SDS011;10873;51.132;16.848;2023-06-10T11:31:38;5.05;;;4.55;;
21424;SDS011;10873;51.132;16.848;2023-06-10T11:34:06;6.05;;;4.93;;
21424;SDS011;10873;51.132;16.848;2023-06-10T11:36:33;4.93;;;4.53;;
21424;SDS011;10873;51.132;16.848;2023-06-10T11:39:06;7.57;;;4.93;;
21424;SDS011;10873;51.132;16.848;2023-06-10T11:41:33;7.00;;;4.85;;
21424;SDS011;10873;51.132;16.848;2023-06-10T11:44:04;5.07;;;4.57;;
21424;SDS011;10873;51.132;16.848;2023-06-10T11:46:34;5.75;;;4.95;;
21424;SDS011;10873;51.132;16.848;2023-06-10T11:49:01;5.22;;;4.72;;
21424;SDS011;10873;51.132;16.848;2023-06-10T11:51:28;6.10;;;4.32;;
21424;SDS011;10873;51.132;16.848;2023-06-10T11:53:57;5.57;;;4.80;;
21424;SDS011;10873;51.132;16.848;2023-06-10T11:56:24;5.38;;;4.60;;
21424;SDS011;10873;51.132;16.848;2023-06-10T11:58:53;6.55;;;4.95;;
21424;SDS011;10873;51.132;16.848;2023-06-10T12:01:22;5.75;;;4.45;;
21424;SDS011;10873;51.132;16.848;2023-06-10T12:03:56;4.90;;;4.47;;
21424;SDS011;10873;51.132;16.848;2023-06-10T12:06:23;6.40;;;4.93;;
21424;SDS011;10873;51.132;16.848;2023-06-10T12:08:50;5.28;;;4.53;;
21424;SDS011;10873;51.132;16.848;2023-06-10T12:11:16;4.78;;;4.32;;
21424;SDS011;10873;51.132;16.848;2023-06-10T12:13:45;5.40;;;4.80;;
21424;SDS011;10873;51.132;16.848;2023-06-10T12:16:14;5.25;;;4.75;;
21424;SDS011;10873;51.132;16.848;2023-06-10T12:18:42;5.57;;;4.95;;
21424;SDS011;10873;51.132;16.848;2023-06-10T12:21:17;5.00;;;4.50;;
21424;SDS011;10873;51.132;16.848;2023-06-10T12:23:59;5.07;;;4.55;;
21424;SDS011;10873;51.132;16.848;2023-06-10T12:26:33;5.18;;;4.68;;
21424;SDS011;10873;51.132;16.848;2023-06-10T12:29:17;5.38;;;4.88;;
21424;SDS011;10873;51.132;16.848;2023-06-10T12:31:54;5.50;;;4.90;;
21424;SDS011;10873;51.132;16.848;2023-06-10T12:34:31;5.20;;;4.78;;
21424;SDS011;10873;51.132;16.848;2023-06-10T12:36:58;6.30;;;4.93;;
21424;SDS011;10873;51.132;16.848;2023-06-10T12:39:24;5.30;;;4.80;;
21424;SDS011;10873;51.132;16.848;2023-06-10T12:41:52;4.90;;;4.40;;
21424;SDS011;10873;51.132;16.848;2023-06-10T12:44:19;4.75;;;4.35;;
21424;SDS011;10873;51.132;16.848;2023-06-10T12:46:54;4.90;;;4.40;;
21424;SDS011;10873;51.132;16.848;2023-06-10T12:49:21;5.55;;;5.05;;
21424;SDS011;10873;51.132;16.848;2023-06-10T12:51:48;5.85;;;4.80;;
21424;SDS011;10873;51.132;16.848;2023-06-10T12:54:15;5.43;;;4.90;;
21424;SDS011;10873;51.132;16.848;2023-06-10T12:56:41;4.65;;;4.25;;
21424;SDS011;10873;51.132;16.848;2023-06-10T12:59:07;5.57;;;4.60;;
21424;SDS011;10873;51.132;16.848;2023-06-10T13:01:33;6.97;;;4.88;;
21424;SDS011;10873;51.132;16.848;2023-06-10T13:04:00;4.95;;;4.45;;
21424;SDS011;10873;51.132;16.848;2023-06-10T13:06:26;4.93;;;4.43;;
21424;SDS011;10873;51.132;16.848;2023-06-10T13:08:53;4.63;;;4.22;;
21424;SDS011;10873;51.132;16.848;2023-06-10T13:11:20;4.75;;;4.35;;
21424;SDS011;10873;51.132;16.848;2023-06-10T13:13:46;4.80;;;4.40;;
21424;SDS011;10873;51.132;16.848;2023-06-10T13:16:12;4.85;;;4.38;;
21424;SDS011;10873;51.132;16.848;2023-06-10T13:18:39;5.80;;;4.43;;
21424;SDS011;10873;51.132;16.848;2023-06-10T13:21:05;4.57;;;4.13;;
21424;SDS011;10873;51.132;16.848;2023-06-10T13:23:31;4.13;;;3.72;;
21424;SDS011;10873;51.132;16.848;2023-06-10T13:25:59;4.80;;;4.32;;
21424;SDS011;10873;51.132;16.848;2023-06-10T13:28:25;5.03;;;4.53;;
21424;SDS011;10873;51.132;16.848;2023-06-10T13:30:51;4.75;;;4.28;;
21424;SDS011;10873;51.132;16.848;2023-06-10T13:33:18;4.80;;;4.32;;
21424;SDS011;10873;51.132;16.848;2023-06-10T13:35:44;5.07;;;4.55;;
21424;SDS011;10873;51.132;16.848;2023-06-10T13:38:10;4.82;;;4.07;;
21424;SDS011;10873;51.132;16.848;2023-06-10T13:40:36;6.10;;;4.47;;
21424;SDS011;10873;51.132;16.848;2023-06-10T13:43:04;4.93;;;4.53;;
21424;SDS011;10873;51.132;16.848;2023-06-10T13:45:30;5.65;;;4.32;;
21424;SDS011;10873;51.132;16.848;2023-06-10T13:47:56;4.95;;;4.50;;
21424;SDS011;10873;51.132;16.848;2023-06-10T13:50:22;5.00;;;4.50;;
21424;SDS011;10873;51.132;16.848;2023-06-10T13:52:48;6.03;;;4.35;;
21424;SDS011;10873;51.132;16.848;2023-06-10T13:55:14;6.43;;;4.80;;
21424;SDS011;10873;51.132;16.848;2023-06-10T13:57:42;4.90;;;4.40;;
21424;SDS011;10873;51.132;16.848;2023-06-10T14:00:09;6.35;;;3.90;;
21424;SDS011;10873;51.132;16.848;2023-06-10T14:02:36;5.05;;;4.55;;
21424;SDS011;10873;51.132;16.848;2023-06-10T14:05:02;4.55;;;4.15;;
21424;SDS011;10873;51.132;16.848;2023-06-10T14:07:30;4.97;;;4.40;;
21424;SDS011;10873;51.132;16.848;2023-06-10T14:09:56;4.88;;;4.47;;
21424;SDS011;10873;51.132;16.848;2023-06-10T14:12:22;4.70;;;4.30;;
21424;SDS011;10873;51.132;16.848;2023-06-10T14:14:48;5.00;;;4.50;;
21424;SDS011;10873;51.132;16.848;2023-06-10T14:17:16;4.32;;;4.03;;
21424;SDS011;10873;51.132;16.848;2023-06-10T14:19:42;4.97;;;4.22;;
21424;SDS011;10873;51.132;16.848;2023-06-10T14:22:08;5.68;;;4.13;;
21424;SDS011;10873;51.132;16.848;2023-06-10T14:24:34;4.57;;;4.18;;
21424;SDS011;10873;51.132;16.848;2023-06-10T14:27:01;5.30;;;4.45;;
21424;SDS011;10873;51.132;16.848;2023-06-10T14:29:27;5.00;;;4.50;;
21424;SDS011;10873;51.132;16.848;2023-06-10T14:31:54;4.13;;;3.80;;
21424;SDS011;10873;51.132;16.848;2023-06-10T14:34:21;4.30;;;3.90;;
21424;SDS011;10873;51.132;16.848;2023-06-10T14:36:48;5.03;;;4.30;;
21424;SDS011;10873;51.132;16.848;2023-06-10T14:39:14;4.70;;;4.30;;
21424;SDS011;10873;51.132;16.848;2023-06-10T14:41:41;5.90;;;4.45;;
21424;SDS011;10873;51.132;16.848;2023-06-10T14:44:06;5.03;;;4.53;;
21424;SDS011;10873;51.132;16.848;2023-06-10T14:46:33;4.70;;;4.05;;
21424;SDS011;10873;51.132;16.848;2023-06-10T14:48:58;4.70;;;4.18;;